sensor_id;sensor_type;location;lat;lon;timestamp;temperature;humidity
14527;DHT22;7350;51.208;4.238;2023-04-24T00:01:25;17.80;99.90
14527;DHT22;7350;51.208;4.238;2023-04-24T00:03:52;17.80;99.90
14527;DHT22;7350;51.208;4.238;2023-04-24T00:06:20;17.80;99.90
14527;DHT22;7350;51.208;4.238;2023-04-24T00:08:49;17.80;99.90
14527;DHT22;7350;51.208;4.238;2023-04-24T00:11:16;17.80;99.90
14527;DHT22;7350;51.208;4.238;2023-04-24T00:13:43;17.70;99.90
14527;DHT22;7350;51.208;4.238;2023-04-24T00:16:10;17.70;99.90
14527;DHT22;7350;51.208;4.238;2023-04-24T00:18:37;17.70;99.90
14527;DHT22;7350;51.208;4.238;2023-04-24T00:21:04;17.80;99.90
14527;DHT22;7350;51.208;4.238;2023-04-24T00:23:33;17.80;99.90
14527;DHT22;7350;51.208;4.238;2023-04-24T00:26:00;17.80;99.90
14527;DHT22;7350;51.208;4.238;2023-04-24T00:28:27;17.80;99.90
14527;DHT22;7350;51.208;4.238;2023-04-24T00:30:54;17.70;99.90
14527;DHT22;7350;51.208;4.238;2023-04-24T00:33:21;17.70;99.90
14527;DHT22;7350;51.208;4.238;2023-04-24T00:35:48;17.70;99.90
14527;DHT22;7350;51.208;4.238;2023-04-24T00:38:15;17.70;99.90
14527;DHT22;7350;51.208;4.238;2023-04-24T00:40:43;17.70;99.90
14527;DHT22;7350;51.208;4.238;2023-04-24T00:43:11;17.70;99.90
14527;DHT22;7350;51.208;4.238;2023-04-24T00:45:38;17.70;99.90
14527;DHT22;7350;51.208;4.238;2023-04-24T00:48:05;17.70;99.90
14527;DHT22;7350;51.208;4.238;2023-04-24T00:50:33;17.70;99.90
14527;DHT22;7350;51.208;4.238;2023-04-24T00:53:02;17.70;99.90
14527;DHT22;7350;51.208;4.238;2023-04-24T00:55:29;17.60;99.90
14527;DHT22;7350;51.208;4.238;2023-04-24T00:57:58;17.60;99.90
14527;DHT22;7350;51.208;4.238;2023-04-24T01:00:26;17.70;99.90
14527;DHT22;7350;51.208;4.238;2023-04-24T01:02:53;17.60;99.90
14527;DHT22;7350;51.208;4.238;2023-04-24T01:05:21;17.60;99.90
14527;DHT22;7350;51.208;4.238;2023-04-24T01:07:48;17.60;99.90
14527;DHT22;7350;51.208;4.238;2023-04-24T01:10:15;17.60;99.90
14527;DHT22;7350;51.208;4.238;2023-04-24T01:12:43;17.70;99.90
14527;DHT22;7350;51.208;4.238;2023-04-24T01:15:11;17.60;99.90
14527;DHT22;7350;51.208;4.238;2023-04-24T01:17:39;17.60;99.90
14527;DHT22;7350;51.208;4.238;2023-04-24T01:20:07;17.60;99.90
14527;DHT22;7350;51.208;4.238;2023-04-24T01:22:36;17.60;99.90
14527;DHT22;7350;51.208;4.238;2023-04-24T01:25:04;17.60;99.90
14527;DHT22;7350;51.208;4.238;2023-04-24T01:27:31;17.60;99.90
14527;DHT22;7350;51.208;4.238;2023-04-24T01:29:58;17.60;99.90
14527;DHT22;7350;51.208;4.238;2023-04-24T01:32:25;17.60;99.90
14527;DHT22;7350;51.208;4.238;2023-04-24T01:34:53;17.60;99.90
14527;DHT22;7350;51.208;4.238;2023-04-24T01:37:21;17.60;99.90
14527;DHT22;7350;51.208;4.238;2023-04-24T01:39:49;17.60;99.90
14527;DHT22;7350;51.208;4.238;2023-04-24T01:42:16;17.60;99.90
14527;DHT22;7350;51.208;4.238;2023-04-24T01:44:43;17.50;99.90
14527;DHT22;7350;51.208;4.238;2023-04-24T01:47:11;17.50;99.90
14527;DHT22;7350;51.208;4.238;2023-04-24T01:49:38;17.50;99.90
14527;DHT22;7350;51.208;4.238;2023-04-24T01:52:05;17.50;99.90
14527;DHT22;7350;51.208;4.238;2023-04-24T01:54:33;17.50;99.90
14527;DHT22;7350;51.208;4.238;2023-04-24T01:57:01;17.50;99.90
14527;DHT22;7350;51.208;4.238;2023-04-24T01:59:28;17.50;99.90
14527;DHT22;7350;51.208;4.238;2023-04-24T02:01:56;17.50;99.90
14527;DHT22;7350;51.208;4.238;2023-04-24T02:04:23;17.50;99.90
14527;DHT22;7350;51.208;4.238;2023-04-24T02:06:50;17.50;99.90
14527;DHT22;7350;51.208;4.238;2023-04-24T02:09:17;17.50;99.90
14527;DHT22;7350;51.208;4.238;2023-04-24T02:11:43;17.50;99.90
14527;DHT22;7350;51.208;4.238;2023-04-24T02:14:12;17.50;99.90
14527;DHT22;7350;51.208;4.238;2023-04-24T02:16:39;17.50;99.90
14527;DHT22;7350;51.208;4.238;2023-04-24T02:19:06;17.50;99.90
14527;DHT22;7350;51.208;4.238;2023-04-24T02:21:33;17.50;99.90
14527;DHT22;7350;51.208;4.238;2023-04-24T02:24:00;17.50;99.90
14527;DHT22;7350;51.208;4.238;2023-04-24T02:26:27;17.50;99.90
14527;DHT22;7350;51.208;4.238;2023-04-24T02:28:54;17.50;99.90
14527;DHT22;7350;51.208;4.238;2023-04-24T02:31:22;17.50;99.90
14527;DHT22;7350;51.208;4.238;2023-04-24T02:33:50;17.50;99.90
14527;DHT22;7350;51.208;4.238;2023-04-24T02:36:17;17.50;99.90
14527;DHT22;7350;51.208;4.238;2023-04-24T02:38:44;17.50;99.90
14527;DHT22;7350;51.208;4.238;2023-04-24T02:41:11;17.40;99.90
14527;DHT22;7350;51.208;4.238;2023-04-24T02:43:37;17.40;99.90
14527;DHT22;7350;51.208;4.238;2023-04-24T02:46:04;17.40;99.90
14527;DHT22;7350;51.208;4.238;2023-04-24T02:48:33;17.40;99.90
14527;DHT22;7350;51.208;4.238;2023-04-24T02:51:00;17.40;99.90
14527;DHT22;7350;51.208;4.238;2023-04-24T02:53:27;17.40;99.90
14527;DHT22;7350;51.208;4.238;2023-04-24T02:55:55;17.40;99.90
14527;DHT22;7350;51.208;4.238;2023-04-24T02:58:22;17.40;99.90
14527;DHT22;7350;51.208;4.238;2023-04-24T03:00:53;17.40;99.90
14527;DHT22;7350;51.208;4.238;2023-04-24T03:03:20;17.40;99.90
14527;DHT22;7350;51.208;4.238;2023-04-24T03:05:48;17.40;99.90
14527;DHT22;7350;51.208;4.238;2023-04-24T03:08:16;17.40;99.90
14527;DHT22;7350;51.208;4.238;2023-04-24T03:10:43;17.40;99.90
14527;DHT22;7350;51.208;4.238;2023-04-24T03:13:10;17.40;99.90
14527;DHT22;7350;51.208;4.238;2023-04-24T03:15:37;17.40;99.90
14527;DHT22;7350;51.208;4.238;2023-04-24T03:18:04;17.40;99.90
14527;DHT22;7350;51.208;4.238;2023-04-24T03:20:31;17.40;99.90
14527;DHT22;7350;51.208;4.238;2023-04-24T03:22:59;17.40;99.90
14527;DHT22;7350;51.208;4.238;2023-04-24T03:25:26;17.40;99.90
14527;DHT22;7350;51.208;4.238;2023-04-24T03:27:53;17.40;99.90
14527;DHT22;7350;51.208;4.238;2023-04-24T03:30:20;17.40;99.90
14527;DHT22;7350;51.208;4.238;2023-04-24T03:32:47;17.40;99.90
14527;DHT22;7350;51.208;4.238;2023-04-24T03:35:14;17.40;99.90
14527;DHT22;7350;51.208;4.238;2023-04-24T03:37:41;17.40;99.90
14527;DHT22;7350;51.208;4.238;2023-04-24T03:40:10;17.40;99.90
14527;DHT22;7350;51.208;4.238;2023-04-24T03:42:37;17.40;99.90
14527;DHT22;7350;51.208;4.238;2023-04-24T03:45:05;17.40;99.90
14527;DHT22;7350;51.208;4.238;2023-04-24T03:47:32;17.40;99.90
14527;DHT22;7350;51.208;4.238;2023-04-24T03:49:59;17.40;99.90
14527;DHT22;7350;51.208;4.238;2023-04-24T03:52:26;17.40;99.90
14527;DHT22;7350;51.208;4.238;2023-04-24T03:54:53;17.50;99.90
14527;DHT22;7350;51.208;4.238;2023-04-24T03:57:22;17.50;99.90
14527;DHT22;7350;51.208;4.238;2023-04-24T03:59:49;17.50;99.90
14527;DHT22;7350;51.208;4.238;2023-04-24T04:02:17;17.50;99.90
14527;DHT22;7350;51.208;4.238;2023-04-24T04:04:43;17.50;99.90
14527;DHT22;7350;51.208;4.238;2023-04-24T04:07:11;17.50;99.90
14527;DHT22;7350;51.208;4.238;2023-04-24T04:09:38;17.50;99.90
14527;DHT22;7350;51.208;4.238;2023-04-24T04:12:05;17.50;99.90
14527;DHT22;7350;51.208;4.238;2023-04-24T04:14:34;17.40;99.90
14527;DHT22;7350;51.208;4.238;2023-04-24T04:17:00;17.40;99.90
14527;DHT22;7350;51.208;4.238;2023-04-24T04:19:27;17.30;99.90
14527;DHT22;7350;51.208;4.238;2023-04-24T04:21:55;17.40;99.90
14527;DHT22;7350;51.208;4.238;2023-04-24T04:24:22;17.40;99.90
14527;DHT22;7350;51.208;4.238;2023-04-24T04:26:49;17.50;99.90
14527;DHT22;7350;51.208;4.238;2023-04-24T04:29:17;17.50;99.90
14527;DHT22;7350;51.208;4.238;2023-04-24T04:31:46;17.50;99.90
14527;DHT22;7350;51.208;4.238;2023-04-24T04:34:13;17.40;99.90
14527;DHT22;7350;51.208;4.238;2023-04-24T04:36:41;17.40;99.90
14527;DHT22;7350;51.208;4.238;2023-04-24T04:39:08;17.50;99.90
14527;DHT22;7350;51.208;4.238;2023-04-24T04:41:35;17.60;99.90
14527;DHT22;7350;51.208;4.238;2023-04-24T04:44:03;17.80;99.90
14527;DHT22;7350;51.208;4.238;2023-04-24T04:46:31;18.00;99.90
14527;DHT22;7350;51.208;4.238;2023-04-24T04:49:01;18.10;99.90
14527;DHT22;7350;51.208;4.238;2023-04-24T04:51:28;18.30;99.90
14527;DHT22;7350;51.208;4.238;2023-04-24T04:53:56;18.40;99.90
14527;DHT22;7350;51.208;4.238;2023-04-24T04:56:23;18.50;99.90
14527;DHT22;7350;51.208;4.238;2023-04-24T04:58:50;18.70;99.90
14527;DHT22;7350;51.208;4.238;2023-04-24T05:01:17;18.70;99.90
14527;DHT22;7350;51.208;4.238;2023-04-24T05:03:44;18.70;99.90
14527;DHT22;7350;51.208;4.238;2023-04-24T05:06:13;18.80;99.90
14527;DHT22;7350;51.208;4.238;2023-04-24T05:08:40;18.90;99.90
14527;DHT22;7350;51.208;4.238;2023-04-24T05:11:07;19.00;99.90
14527;DHT22;7350;51.208;4.238;2023-04-24T05:13:34;19.00;99.90
14527;DHT22;7350;51.208;4.238;2023-04-24T05:16:02;19.10;99.90
14527;DHT22;7350;51.208;4.238;2023-04-24T05:18:29;19.10;99.90
14527;DHT22;7350;51.208;4.238;2023-04-24T05:20:55;19.10;99.90
14527;DHT22;7350;51.208;4.238;2023-04-24T05:23:24;19.20;99.90
14527;DHT22;7350;51.208;4.238;2023-04-24T05:25:51;19.20;99.90
14527;DHT22;7350;51.208;4.238;2023-04-24T05:28:18;19.30;99.90
14527;DHT22;7350;51.208;4.238;2023-04-24T05:30:45;19.20;99.90
14527;DHT22;7350;51.208;4.238;2023-04-24T05:33:12;19.20;99.90
14527;DHT22;7350;51.208;4.238;2023-04-24T05:35:40;19.30;99.90
14527;DHT22;7350;51.208;4.238;2023-04-24T05:38:11;19.30;99.90
14527;DHT22;7350;51.208;4.238;2023-04-24T05:40:39;19.30;99.90
14527;DHT22;7350;51.208;4.238;2023-04-24T05:43:06;19.30;99.90
14527;DHT22;7350;51.208;4.238;2023-04-24T05:45:33;19.30;99.90
14527;DHT22;7350;51.208;4.238;2023-04-24T05:48:01;19.30;99.90
14527;DHT22;7350;51.208;4.238;2023-04-24T05:50:28;19.20;99.90
14527;DHT22;7350;51.208;4.238;2023-04-24T05:52:55;19.20;99.90
14527;DHT22;7350;51.208;4.238;2023-04-24T05:55:23;19.20;99.90
14527;DHT22;7350;51.208;4.238;2023-04-24T05:57:53;19.20;99.90
14527;DHT22;7350;51.208;4.238;2023-04-24T06:00:20;19.10;99.90
14527;DHT22;7350;51.208;4.238;2023-04-24T06:02:47;19.10;99.90
14527;DHT22;7350;51.208;4.238;2023-04-24T06:05:14;19.00;99.90
14527;DHT22;7350;51.208;4.238;2023-04-24T06:07:41;19.10;99.90
14527;DHT22;7350;51.208;4.238;2023-04-24T06:10:09;19.10;99.90
14527;DHT22;7350;51.208;4.238;2023-04-24T06:12:36;19.00;99.90
14527;DHT22;7350;51.208;4.238;2023-04-24T06:15:06;19.00;99.90
14527;DHT22;7350;51.208;4.238;2023-04-24T06:17:33;19.00;99.90
14527;DHT22;7350;51.208;4.238;2023-04-24T06:20:00;18.90;99.90
14527;DHT22;7350;51.208;4.238;2023-04-24T06:22:29;18.90;99.90
14527;DHT22;7350;51.208;4.238;2023-04-24T06:24:56;18.80;99.90
14527;DHT22;7350;51.208;4.238;2023-04-24T06:27:23;18.90;99.90
14527;DHT22;7350;51.208;4.238;2023-04-24T06:29:50;18.90;99.90
14527;DHT22;7350;51.208;4.238;2023-04-24T06:32:22;18.90;99.90
14527;DHT22;7350;51.208;4.238;2023-04-24T06:34:49;18.80;99.90
14527;DHT22;7350;51.208;4.238;2023-04-24T06:37:16;18.80;99.90
14527;DHT22;7350;51.208;4.238;2023-04-24T06:39:43;18.80;99.90
14527;DHT22;7350;51.208;4.238;2023-04-24T06:42:10;18.80;99.90
14527;DHT22;7350;51.208;4.238;2023-04-24T06:44:36;18.80;99.90
14527;DHT22;7350;51.208;4.238;2023-04-24T06:47:06;18.70;99.90
14527;DHT22;7350;51.208;4.238;2023-04-24T06:49:35;18.70;99.90
14527;DHT22;7350;51.208;4.238;2023-04-24T06:52:02;18.70;99.90
14527;DHT22;7350;51.208;4.238;2023-04-24T06:54:30;18.70;99.90
14527;DHT22;7350;51.208;4.238;2023-04-24T06:56:57;18.60;99.90
14527;DHT22;7350;51.208;4.238;2023-04-24T06:59:24;18.70;99.90
14527;DHT22;7350;51.208;4.238;2023-04-24T07:01:51;18.60;99.90
14527;DHT22;7350;51.208;4.238;2023-04-24T07:04:18;18.60;99.90
14527;DHT22;7350;51.208;4.238;2023-04-24T07:06:47;18.60;99.90
14527;DHT22;7350;51.208;4.238;2023-04-24T07:09:14;18.50;99.90
14527;DHT22;7350;51.208;4.238;2023-04-24T07:11:43;18.50;99.90
14527;DHT22;7350;51.208;4.238;2023-04-24T07:14:11;18.50;99.90
14527;DHT22;7350;51.208;4.238;2023-04-24T07:16:38;18.50;99.90
14527;DHT22;7350;51.208;4.238;2023-04-24T07:19:05;18.50;99.90
14527;DHT22;7350;51.208;4.238;2023-04-24T07:21:32;18.50;99.90
14527;DHT22;7350;51.208;4.238;2023-04-24T07:24:01;18.40;99.90
14527;DHT22;7350;51.208;4.238;2023-04-24T07:26:29;18.40;99.90
14527;DHT22;7350;51.208;4.238;2023-04-24T07:28:56;18.40;99.90
14527;DHT22;7350;51.208;4.238;2023-04-24T07:31:23;18.40;99.90
14527;DHT22;7350;51.208;4.238;2023-04-24T07:33:50;18.40;99.90
14527;DHT22;7350;51.208;4.238;2023-04-24T07:36:17;18.40;99.90
14527;DHT22;7350;51.208;4.238;2023-04-24T07:38:45;18.40;99.90
14527;DHT22;7350;51.208;4.238;2023-04-24T07:41:14;18.30;99.90
14527;DHT22;7350;51.208;4.238;2023-04-24T07:43:41;18.30;99.90
14527;DHT22;7350;51.208;4.238;2023-04-24T07:46:08;18.30;99.90
14527;DHT22;7350;51.208;4.238;2023-04-24T07:48:36;18.30;99.90
14527;DHT22;7350;51.208;4.238;2023-04-24T07:51:03;18.30;99.90
14527;DHT22;7350;51.208;4.238;2023-04-24T07:53:30;18.30;99.90
14527;DHT22;7350;51.208;4.238;2023-04-24T07:55:57;18.30;99.90
14527;DHT22;7350;51.208;4.238;2023-04-24T07:58:25;18.20;99.90
14527;DHT22;7350;51.208;4.238;2023-04-24T08:00:52;18.20;99.90
14527;DHT22;7350;51.208;4.238;2023-04-24T08:03:19;18.20;99.90
14527;DHT22;7350;51.208;4.238;2023-04-24T08:05:46;18.20;99.90
14527;DHT22;7350;51.208;4.238;2023-04-24T08:08:13;18.10;99.90
14527;DHT22;7350;51.208;4.238;2023-04-24T08:10:40;18.10;99.90
14527;DHT22;7350;51.208;4.238;2023-04-24T08:13:07;18.10;99.90
14527;DHT22;7350;51.208;4.238;2023-04-24T08:15:35;18.00;99.90
14527;DHT22;7350;51.208;4.238;2023-04-24T08:18:02;18.00;99.90
14527;DHT22;7350;51.208;4.238;2023-04-24T08:20:29;18.10;99.90
14527;DHT22;7350;51.208;4.238;2023-04-24T08:22:56;18.10;99.90
14527;DHT22;7350;51.208;4.238;2023-04-24T08:25:23;18.10;99.90
14527;DHT22;7350;51.208;4.238;2023-04-24T08:27:50;18.10;99.90
14527;DHT22;7350;51.208;4.238;2023-04-24T08:30:17;18.10;99.90
14527;DHT22;7350;51.208;4.238;2023-04-24T08:32:46;18.10;99.90
14527;DHT22;7350;51.208;4.238;2023-04-24T08:35:13;18.10;99.90
14527;DHT22;7350;51.208;4.238;2023-04-24T08:37:40;18.00;99.90
14527;DHT22;7350;51.208;4.238;2023-04-24T08:40:14;18.00;99.90
14527;DHT22;7350;51.208;4.238;2023-04-24T08:42:42;18.00;99.90
14527;DHT22;7350;51.208;4.238;2023-04-24T08:45:10;18.00;99.90
14527;DHT22;7350;51.208;4.238;2023-04-24T08:47:38;18.00;99.90
14527;DHT22;7350;51.208;4.238;2023-04-24T08:50:08;17.90;99.90
14527;DHT22;7350;51.208;4.238;2023-04-24T08:52:35;17.90;99.90
14527;DHT22;7350;51.208;4.238;2023-04-24T08:55:02;17.90;99.90
14527;DHT22;7350;51.208;4.238;2023-04-24T08:57:30;18.00;99.90
14527;DHT22;7350;51.208;4.238;2023-04-24T08:59:58;18.00;99.90
14527;DHT22;7350;51.208;4.238;2023-04-24T09:02:25;18.00;99.90
14527;DHT22;7350;51.208;4.238;2023-04-24T09:04:53;18.00;99.90
14527;DHT22;7350;51.208;4.238;2023-04-24T09:07:22;18.00;99.90
14527;DHT22;7350;51.208;4.238;2023-04-24T09:09:51;18.00;99.90
14527;DHT22;7350;51.208;4.238;2023-04-24T09:12:18;18.00;99.90
14527;DHT22;7350;51.208;4.238;2023-04-24T09:14:45;18.00;99.90
14527;DHT22;7350;51.208;4.238;2023-04-24T09:17:12;18.00;99.90
14527;DHT22;7350;51.208;4.238;2023-04-24T09:19:40;18.00;99.90
14527;DHT22;7350;51.208;4.238;2023-04-24T09:22:07;17.90;99.90
14527;DHT22;7350;51.208;4.238;2023-04-24T09:24:36;17.90;99.90
14527;DHT22;7350;51.208;4.238;2023-04-24T09:27:03;17.80;99.90
14527;DHT22;7350;51.208;4.238;2023-04-24T09:29:30;17.80;99.90
14527;DHT22;7350;51.208;4.238;2023-04-24T09:31:58;17.90;99.90
14527;DHT22;7350;51.208;4.238;2023-04-24T09:34:26;17.90;99.90
14527;DHT22;7350;51.208;4.238;2023-04-24T09:36:54;17.90;99.90
14527;DHT22;7350;51.208;4.238;2023-04-24T09:39:21;17.90;99.90
14527;DHT22;7350;51.208;4.238;2023-04-24T09:41:51;17.90;99.90
14527;DHT22;7350;51.208;4.238;2023-04-24T09:44:19;17.90;99.90
14527;DHT22;7350;51.208;4.238;2023-04-24T09:46:49;17.80;99.90
14527;DHT22;7350;51.208;4.238;2023-04-24T09:49:22;17.80;99.90
14527;DHT22;7350;51.208;4.238;2023-04-24T09:51:49;17.80;99.90
14527;DHT22;7350;51.208;4.238;2023-04-24T09:54:17;17.90;99.90
14527;DHT22;7350;51.208;4.238;2023-04-24T09:56:46;17.90;99.90
14527;DHT22;7350;51.208;4.238;2023-04-24T09:59:16;17.90;99.90
14527;DHT22;7350;51.208;4.238;2023-04-24T10:01:43;17.90;99.90
14527;DHT22;7350;51.208;4.238;2023-04-24T10:04:18;17.90;99.90
14527;DHT22;7350;51.208;4.238;2023-04-24T10:06:46;18.00;99.90
14527;DHT22;7350;51.208;4.238;2023-04-24T10:09:14;18.00;99.90
14527;DHT22;7350;51.208;4.238;2023-04-24T10:11:43;18.00;99.90
14527;DHT22;7350;51.208;4.238;2023-04-24T10:14:12;18.00;99.90
14527;DHT22;7350;51.208;4.238;2023-04-24T10:16:42;18.10;99.90
14527;DHT22;7350;51.208;4.238;2023-04-24T10:19:09;18.10;99.90
14527;DHT22;7350;51.208;4.238;2023-04-24T10:21:40;18.10;99.90
14527;DHT22;7350;51.208;4.238;2023-04-24T10:24:12;18.10;99.90
14527;DHT22;7350;51.208;4.238;2023-04-24T10:26:40;18.10;99.90
14527;DHT22;7350;51.208;4.238;2023-04-24T10:29:07;18.10;99.90
14527;DHT22;7350;51.208;4.238;2023-04-24T10:31:37;18.10;99.90
14527;DHT22;7350;51.208;4.238;2023-04-24T10:34:07;18.10;99.90
14527;DHT22;7350;51.208;4.238;2023-04-24T10:36:36;18.10;99.90
14527;DHT22;7350;51.208;4.238;2023-04-24T10:39:07;18.10;99.90
14527;DHT22;7350;51.208;4.238;2023-04-24T10:41:37;18.10;99.90
14527;DHT22;7350;51.208;4.238;2023-04-24T10:44:05;18.20;99.90
14527;DHT22;7350;51.208;4.238;2023-04-24T10:46:32;18.20;99.90
14527;DHT22;7350;51.208;4.238;2023-04-24T10:48:59;18.20;99.90
14527;DHT22;7350;51.208;4.238;2023-04-24T10:51:45;18.20;99.90
14527;DHT22;7350;51.208;4.238;2023-04-24T10:54:23;18.30;99.90
14527;DHT22;7350;51.208;4.238;2023-04-24T10:56:51;18.30;99.90
14527;DHT22;7350;51.208;4.238;2023-04-24T10:59:24;18.20;99.90
14527;DHT22;7350;51.208;4.238;2023-04-24T11:01:53;18.30;99.90
14527;DHT22;7350;51.208;4.238;2023-04-24T11:04:29;18.30;99.90
14527;DHT22;7350;51.208;4.238;2023-04-24T11:06:58;18.30;99.90
14527;DHT22;7350;51.208;4.238;2023-04-24T11:09:27;18.30;99.90
14527;DHT22;7350;51.208;4.238;2023-04-24T11:12:04;18.30;99.90
14527;DHT22;7350;51.208;4.238;2023-04-24T11:15:00;18.30;99.90
14527;DHT22;7350;51.208;4.238;2023-04-24T11:17:29;18.30;99.90
14527;DHT22;7350;51.208;4.238;2023-04-24T11:20:01;18.40;99.90
14527;DHT22;7350;51.208;4.238;2023-04-24T11:22:33;18.40;99.90
14527;DHT22;7350;51.208;4.238;2023-04-24T11:25:01;18.40;99.90
14527;DHT22;7350;51.208;4.238;2023-04-24T11:27:31;18.40;99.90
14527;DHT22;7350;51.208;4.238;2023-04-24T11:30:00;18.40;99.90
14527;DHT22;7350;51.208;4.238;2023-04-24T11:32:29;18.40;99.90
14527;DHT22;7350;51.208;4.238;2023-04-24T11:34:57;18.40;99.90
14527;DHT22;7350;51.208;4.238;2023-04-24T11:37:27;18.40;99.90
14527;DHT22;7350;51.208;4.238;2023-04-24T11:39:57;18.40;99.90
14527;DHT22;7350;51.208;4.238;2023-04-24T11:42:24;18.50;99.90
14527;DHT22;7350;51.208;4.238;2023-04-24T11:44:53;18.50;99.90
14527;DHT22;7350;51.208;4.238;2023-04-24T11:47:27;18.50;99.90
14527;DHT22;7350;51.208;4.238;2023-04-24T11:49:55;18.50;99.90
14527;DHT22;7350;51.208;4.238;2023-04-24T11:52:22;18.50;99.90
14527;DHT22;7350;51.208;4.238;2023-04-24T11:54:49;18.60;99.90
14527;DHT22;7350;51.208;4.238;2023-04-24T11:57:19;18.50;99.90
14527;DHT22;7350;51.208;4.238;2023-04-24T11:59:47;18.50;99.90
14527;DHT22;7350;51.208;4.238;2023-04-24T12:02:23;18.60;99.90
14527;DHT22;7350;51.208;4.238;2023-04-24T12:04:51;18.60;99.90
14527;DHT22;7350;51.208;4.238;2023-04-24T12:07:18;18.70;99.90
14527;DHT22;7350;51.208;4.238;2023-04-24T12:09:46;18.70;99.90
14527;DHT22;7350;51.208;4.238;2023-04-24T12:12:15;18.70;99.90
14527;DHT22;7350;51.208;4.238;2023-04-24T12:14:48;18.60;99.90
14527;DHT22;7350;51.208;4.238;2023-04-24T12:17:16;18.70;99.90
14527;DHT22;7350;51.208;4.238;2023-04-24T12:19:47;18.70;99.90
14527;DHT22;7350;51.208;4.238;2023-04-24T12:22:15;18.70;99.90
14527;DHT22;7350;51.208;4.238;2023-04-24T12:24:58;18.70;99.90
14527;DHT22;7350;51.208;4.238;2023-04-24T12:27:28;18.70;99.90
14527;DHT22;7350;51.208;4.238;2023-04-24T12:29:57;18.70;99.90
14527;DHT22;7350;51.208;4.238;2023-04-24T12:32:25;18.70;99.90
14527;DHT22;7350;51.208;4.238;2023-04-24T12:34:53;18.70;99.90
14527;DHT22;7350;51.208;4.238;2023-04-24T12:37:20;18.70;99.90
14527;DHT22;7350;51.208;4.238;2023-04-24T12:40:05;18.60;99.90
14527;DHT22;7350;51.208;4.238;2023-04-24T12:42:33;18.60;99.90
14527;DHT22;7350;51.208;4.238;2023-04-24T12:45:03;18.60;99.90
14527;DHT22;7350;51.208;4.238;2023-04-24T12:47:31;18.60;99.90
14527;DHT22;7350;51.208;4.238;2023-04-24T12:49:58;18.60;99.90
14527;DHT22;7350;51.208;4.238;2023-04-24T12:52:27;18.70;99.90
14527;DHT22;7350;51.208;4.238;2023-04-24T12:54:55;18.70;99.90
14527;DHT22;7350;51.208;4.238;2023-04-24T12:57:23;18.70;99.90
14527;DHT22;7350;51.208;4.238;2023-04-24T12:59:50;18.80;99.90
14527;DHT22;7350;51.208;4.238;2023-04-24T13:02:18;18.90;99.90
14527;DHT22;7350;51.208;4.238;2023-04-24T13:04:46;18.90;99.90
14527;DHT22;7350;51.208;4.238;2023-04-24T13:07:14;19.00;99.90
14527;DHT22;7350;51.208;4.238;2023-04-24T13:09:44;19.00;99.90
14527;DHT22;7350;51.208;4.238;2023-04-24T13:12:11;19.00;99.90
14527;DHT22;7350;51.208;4.238;2023-04-24T13:14:38;19.10;99.90
14527;DHT22;7350;51.208;4.238;2023-04-24T13:17:05;19.10;99.90
14527;DHT22;7350;51.208;4.238;2023-04-24T13:19:37;19.00;99.90
14527;DHT22;7350;51.208;4.238;2023-04-24T13:22:05;19.10;99.90
14527;DHT22;7350;51.208;4.238;2023-04-24T13:24:32;19.10;99.90
14527;DHT22;7350;51.208;4.238;2023-04-24T13:27:00;19.10;99.90
14527;DHT22;7350;51.208;4.238;2023-04-24T13:29:28;19.10;99.90
14527;DHT22;7350;51.208;4.238;2023-04-24T13:31:55;19.10;99.90
14527;DHT22;7350;51.208;4.238;2023-04-24T13:34:22;19.00;99.90
14527;DHT22;7350;51.208;4.238;2023-04-24T13:36:52;19.00;99.90
14527;DHT22;7350;51.208;4.238;2023-04-24T13:39:19;19.00;99.90
14527;DHT22;7350;51.208;4.238;2023-04-24T13:41:46;19.00;99.90
14527;DHT22;7350;51.208;4.238;2023-04-24T13:44:14;19.00;99.90
14527;DHT22;7350;51.208;4.238;2023-04-24T13:46:41;19.00;99.90
14527;DHT22;7350;51.208;4.238;2023-04-24T13:49:10;19.10;99.90
14527;DHT22;7350;51.208;4.238;2023-04-24T13:51:37;19.20;99.90
14527;DHT22;7350;51.208;4.238;2023-04-24T13:54:05;19.20;99.90
14527;DHT22;7350;51.208;4.238;2023-04-24T13:56:32;19.20;99.90
14527;DHT22;7350;51.208;4.238;2023-04-24T13:59:00;19.20;99.90
14527;DHT22;7350;51.208;4.238;2023-04-24T14:01:27;19.20;99.90
14527;DHT22;7350;51.208;4.238;2023-04-24T14:03:55;19.30;99.90
14527;DHT22;7350;51.208;4.238;2023-04-24T14:06:23;19.40;99.90
14527;DHT22;7350;51.208;4.238;2023-04-24T14:08:50;19.40;99.90
14527;DHT22;7350;51.208;4.238;2023-04-24T14:11:19;19.40;99.90
14527;DHT22;7350;51.208;4.238;2023-04-24T14:13:46;19.40;99.90
14527;DHT22;7350;51.208;4.238;2023-04-24T14:16:13;19.40;99.90
14527;DHT22;7350;51.208;4.238;2023-04-24T14:18:40;19.50;99.90
14527;DHT22;7350;51.208;4.238;2023-04-24T14:21:07;19.50;99.90
14527;DHT22;7350;51.208;4.238;2023-04-24T14:23:34;19.60;99.90
14527;DHT22;7350;51.208;4.238;2023-04-24T14:26:02;19.60;99.90
14527;DHT22;7350;51.208;4.238;2023-04-24T14:28:31;19.60;99.90
14527;DHT22;7350;51.208;4.238;2023-04-24T14:30:57;19.60;99.90
14527;DHT22;7350;51.208;4.238;2023-04-24T14:33:25;19.70;99.90
14527;DHT22;7350;51.208;4.238;2023-04-24T14:35:52;19.80;99.90
14527;DHT22;7350;51.208;4.238;2023-04-24T14:38:19;19.80;99.90
14527;DHT22;7350;51.208;4.238;2023-04-24T14:40:45;19.80;99.90
14527;DHT22;7350;51.208;4.238;2023-04-24T14:43:12;19.80;99.90
14527;DHT22;7350;51.208;4.238;2023-04-24T14:45:41;19.80;99.90
14527;DHT22;7350;51.208;4.238;2023-04-24T14:48:08;19.80;99.90
14527;DHT22;7350;51.208;4.238;2023-04-24T14:50:35;19.80;99.90
14527;DHT22;7350;51.208;4.238;2023-04-24T14:53:02;19.80;99.90
14527;DHT22;7350;51.208;4.238;2023-04-24T14:55:29;19.80;99.90
14527;DHT22;7350;51.208;4.238;2023-04-24T14:57:56;19.80;99.90
14527;DHT22;7350;51.208;4.238;2023-04-24T15:00:23;19.80;99.90
14527;DHT22;7350;51.208;4.238;2023-04-24T15:02:52;19.90;99.90
14527;DHT22;7350;51.208;4.238;2023-04-24T15:05:19;20.00;99.90
14527;DHT22;7350;51.208;4.238;2023-04-24T15:07:46;20.00;99.90
14527;DHT22;7350;51.208;4.238;2023-04-24T15:10:13;20.00;99.90
14527;DHT22;7350;51.208;4.238;2023-04-24T15:12:40;20.00;99.90
14527;DHT22;7350;51.208;4.238;2023-04-24T15:15:08;20.00;99.90
14527;DHT22;7350;51.208;4.238;2023-04-24T15:17:35;20.10;99.90
14527;DHT22;7350;51.208;4.238;2023-04-24T15:20:05;20.10;99.90
14527;DHT22;7350;51.208;4.238;2023-04-24T15:22:33;20.10;99.90
14527;DHT22;7350;51.208;4.238;2023-04-24T15:25:00;20.10;99.90
14527;DHT22;7350;51.208;4.238;2023-04-24T15:27:37;20.10;99.90
14527;DHT22;7350;51.208;4.238;2023-04-24T15:30:06;20.10;99.90
14527;DHT22;7350;51.208;4.238;2023-04-24T15:32:34;20.00;99.90
14527;DHT22;7350;51.208;4.238;2023-04-24T15:35:01;20.00;99.90
14527;DHT22;7350;51.208;4.238;2023-04-24T15:37:29;20.00;99.90
14527;DHT22;7350;51.208;4.238;2023-04-24T15:39:56;20.00;99.90
14527;DHT22;7350;51.208;4.238;2023-04-24T15:42:25;19.90;99.90
14527;DHT22;7350;51.208;4.238;2023-04-24T15:44:52;19.90;99.90
14527;DHT22;7350;51.208;4.238;2023-04-24T15:47:19;19.90;99.90
14527;DHT22;7350;51.208;4.238;2023-04-24T15:49:46;19.90;99.90